createdAt,value
2022-10-24T00:01:15.966Z,100.00
2022-10-24T00:03:43.363Z,100.00
2022-10-24T00:06:12.177Z,100.00
2022-10-24T00:08:41.431Z,100.00
2022-10-24T00:11:14.914Z,100.00
2022-10-24T00:13:42.799Z,100.00
2022-10-24T00:16:10.833Z,100.00
2022-10-24T00:18:38.271Z,100.00
2022-10-24T00:21:06.413Z,100.00
2022-10-24T00:23:33.539Z,100.00
2022-10-24T00:26:01.977Z,100.00
2022-10-24T00:28:33.063Z,100.00
2022-10-24T00:31:00.574Z,100.00
2022-10-24T00:33:28.068Z,100.00
2022-10-24T00:35:55.069Z,100.00
2022-10-24T00:38:22.395Z,100.00
2022-10-24T00:40:49.479Z,100.00
2022-10-24T00:43:20.700Z,100.00
2022-10-24T00:45:47.730Z,100.00
2022-10-24T00:48:17.611Z,100.00
2022-10-24T00:50:46.663Z,100.00
2022-10-24T00:53:14.723Z,100.00
2022-10-24T00:55:43.763Z,100.00
2022-10-24T00:58:11.534Z,100.00
2022-10-24T01:00:38.687Z,100.00
2022-10-24T01:03:05.802Z,100.00
2022-10-24T01:05:44.199Z,100.00
2022-10-24T01:08:45.760Z,100.00
2022-10-24T01:11:42.372Z,100.00
2022-10-24T01:14:40.062Z,100.00
2022-10-24T01:17:15.636Z,100.00
2022-10-24T01:20:04.356Z,100.00
2022-10-24T01:23:02.314Z,100.00
2022-10-24T01:25:55.652Z,100.00
2022-10-24T01:28:47.036Z,100.00
2022-10-24T01:31:33.279Z,100.00
2022-10-24T01:34:07.844Z,100.00
2022-10-24T01:36:43.871Z,100.00
2022-10-24T01:39:16.651Z,100.00
2022-10-24T01:41:45.239Z,100.00
2022-10-24T01:44:23.289Z,100.00
2022-10-24T01:46:56.312Z,100.00
2022-10-24T01:49:29.951Z,100.00
2022-10-24T01:52:02.236Z,100.00
2022-10-24T01:54:31.718Z,100.00
2022-10-24T01:56:58.811Z,100.00
2022-10-24T01:59:25.826Z,100.00
2022-10-24T02:01:58.429Z,100.00
2022-10-24T02:04:27.434Z,100.00
2022-10-24T02:06:57.102Z,100.00
2022-10-24T02:09:25.144Z,100.00
2022-10-24T02:11:53.677Z,100.00
2022-10-24T02:14:32.836Z,100.00
2022-10-24T02:17:00.926Z,100.00
2022-10-24T02:19:28.889Z,100.00
2022-10-24T02:22:28.134Z,100.00
2022-10-24T02:25:03.621Z,100.00
2022-10-24T02:27:39.201Z,100.00
2022-10-24T02:30:11.229Z,100.00
2022-10-24T02:32:45.712Z,100.00
2022-10-24T02:35:16.171Z,100.00
2022-10-24T02:37:49.443Z,100.00
2022-10-24T02:40:19.876Z,100.00
2022-10-24T02:42:50.894Z,100.00
2022-10-24T02:45:19.664Z,100.00
2022-10-24T02:47:51.265Z,100.00
2022-10-24T02:50:18.608Z,100.00
2022-10-24T02:52:46.450Z,100.00
2022-10-24T02:55:13.709Z,100.00
2022-10-24T02:57:40.682Z,100.00
2022-10-24T03:00:08.625Z,100.00
2022-10-24T03:02:35.942Z,100.00
2022-10-24T03:05:03.662Z,100.00
2022-10-24T03:10:02.846Z,100.00
2022-10-24T03:12:29.867Z,100.00
2022-10-24T03:14:56.850Z,100.00
2022-10-24T03:17:23.848Z,100.00
2022-10-24T03:19:50.863Z,100.00
2022-10-24T03:22:17.870Z,100.00
2022-10-24T03:24:55.147Z,100.00
2022-10-24T03:27:22.922Z,100.00
2022-10-24T03:29:49.943Z,100.00
2022-10-24T03:32:16.986Z,100.00
2022-10-24T03:34:44.221Z,100.00
2022-10-24T03:37:11.373Z,100.00
2022-10-24T03:39:38.469Z,100.00
2022-10-24T03:42:05.510Z,100.00
2022-10-24T03:44:32.500Z,100.00
2022-10-24T03:46:59.485Z,100.00
2022-10-24T03:49:26.514Z,100.00
2022-10-24T03:51:53.532Z,100.00
2022-10-24T03:54:20.538Z,100.00
2022-10-24T03:56:49.245Z,100.00
2022-10-24T03:59:16.314Z,100.00
2022-10-24T04:01:43.443Z,100.00
2022-10-24T04:04:10.490Z,100.00
2022-10-24T04:06:37.563Z,100.00
2022-10-24T04:09:05.036Z,100.00
2022-10-24T04:11:32.095Z,100.00
2022-10-24T04:16:34.714Z,100.00
2022-10-24T04:19:01.947Z,100.00
2022-10-24T04:21:29.343Z,100.00
2022-10-24T04:23:56.987Z,100.00
2022-10-24T04:26:24.753Z,100.00
2022-10-24T04:28:51.740Z,100.00
2022-10-24T04:31:22.478Z,100.00
2022-10-24T04:33:51.014Z,100.00
2022-10-24T04:36:18.235Z,100.00
2022-10-24T04:38:45.246Z,100.00
2022-10-24T04:41:12.785Z,100.00
2022-10-24T04:43:40.679Z,100.00
2022-10-24T04:46:08.062Z,100.00
2022-10-24T04:48:35.144Z,100.00
2022-10-24T04:51:02.254Z,100.00
2022-10-24T04:53:30.135Z,100.00
2022-10-24T04:55:57.114Z,100.00
2022-10-24T04:58:24.329Z,100.00
2022-10-24T05:00:51.378Z,100.00
2022-10-24T05:03:19.572Z,100.00
2022-10-24T05:05:47.361Z,100.00
2022-10-24T05:08:15.719Z,100.00
2022-10-24T05:10:42.828Z,100.00
2022-10-24T05:13:10.018Z,100.00
2022-10-24T05:15:37.441Z,100.00
2022-10-24T05:18:04.758Z,100.00
2022-10-24T05:20:31.824Z,100.00
2022-10-24T05:22:58.883Z,100.00
2022-10-24T05:25:25.859Z,100.00
2022-10-24T05:27:53.742Z,100.00
2022-10-24T05:30:21.022Z,100.00
2022-10-24T05:32:48.305Z,100.00
2022-10-24T05:35:15.438Z,100.00
2022-10-24T05:37:43.948Z,100.00
2022-10-24T05:40:12.682Z,100.00
2022-10-24T05:42:40.233Z,100.00
2022-10-24T05:45:09.421Z,100.00
2022-10-24T05:47:37.122Z,100.00
2022-10-24T05:50:05.805Z,100.00
2022-10-24T05:52:36.190Z,100.00
2022-10-24T05:55:08.262Z,100.00
2022-10-24T05:57:37.764Z,100.00
2022-10-24T06:00:11.339Z,100.00
2022-10-24T06:02:42.444Z,100.00
2022-10-24T06:05:10.292Z,100.00
2022-10-24T06:07:37.523Z,100.00
2022-10-24T06:10:06.776Z,100.00
2022-10-24T06:12:36.022Z,100.00
2022-10-24T06:15:06.872Z,100.00
2022-10-24T06:17:34.133Z,100.00
2022-10-24T06:20:01.166Z,100.00
2022-10-24T06:22:29.661Z,100.00
2022-10-24T06:24:57.039Z,100.00
2022-10-24T06:27:24.373Z,100.00
2022-10-24T06:29:51.446Z,100.00
2022-10-24T06:32:18.774Z,100.00
2022-10-24T06:34:45.909Z,100.00
2022-10-24T06:37:12.950Z,100.00
2022-10-24T06:39:39.979Z,100.00
2022-10-24T06:42:06.980Z,100.00
2022-10-24T06:44:34.122Z,100.00
2022-10-24T06:47:01.092Z,100.00
2022-10-24T06:49:28.201Z,100.00
2022-10-24T06:51:55.178Z,100.00
2022-10-24T06:54:24.183Z,100.00
2022-10-24T06:56:53.513Z,100.00
2022-10-24T06:59:20.534Z,100.00
2022-10-24T07:01:47.683Z,100.00
2022-10-24T07:04:14.840Z,100.00
2022-10-24T07:06:41.945Z,100.00
2022-10-24T07:09:14.371Z,100.00
2022-10-24T07:11:43.717Z,100.00
2022-10-24T07:14:11.442Z,100.00
2022-10-24T07:16:39.034Z,100.00
2022-10-24T07:19:06.787Z,100.00
2022-10-24T07:21:34.192Z,100.00
2022-10-24T07:24:01.636Z,100.00
2022-10-24T07:26:29.704Z,100.00
2022-10-24T07:29:04.141Z,100.00
2022-10-24T07:31:34.226Z,100.00
2022-10-24T07:34:03.602Z,100.00
2022-10-24T07:36:30.772Z,100.00
2022-10-24T07:38:59.061Z,100.00
2022-10-24T07:41:28.050Z,100.00
2022-10-24T07:43:57.259Z,100.00
2022-10-24T07:46:24.538Z,99.66
2022-10-24T07:48:52.697Z,98.86
2022-10-24T07:51:20.357Z,99.23
2022-10-24T07:53:48.108Z,98.93
2022-10-24T07:56:16.838Z,98.96
2022-10-24T07:58:44.814Z,98.97
2022-10-24T08:01:14.887Z,99.44
2022-10-24T08:03:41.937Z,99.04
2022-10-24T08:06:12.458Z,99.02
2022-10-24T08:08:40.474Z,98.22
2022-10-24T08:11:16.236Z,98.59
2022-10-24T08:13:44.094Z,97.69
2022-10-24T08:16:14.101Z,97.55
2022-10-24T08:18:41.214Z,98.41
2022-10-24T08:21:11.558Z,99.06
2022-10-24T08:23:40.840Z,99.20
2022-10-24T08:26:10.229Z,97.83
2022-10-24T08:28:37.266Z,97.45
2022-10-24T08:31:10.833Z,98.26
2022-10-24T08:33:37.965Z,98.08
2022-10-24T08:36:13.301Z,97.99
2022-10-24T08:38:40.408Z,98.30
2022-10-24T08:41:15.467Z,96.95
2022-10-24T08:43:42.956Z,96.56
2022-10-24T08:46:25.046Z,97.11
2022-10-24T08:49:33.776Z,95.80
2022-10-24T08:52:18.223Z,95.67
2022-10-24T08:54:46.439Z,94.53
2022-10-24T08:57:26.208Z,93.91
2022-10-24T08:59:57.593Z,93.42
2022-10-24T09:02:32.389Z,93.89
2022-10-24T09:05:04.718Z,92.74
2022-10-24T09:07:31.781Z,93.59
2022-10-24T09:10:13.626Z,93.69
2022-10-24T09:12:40.675Z,93.81
2022-10-24T09:15:16.151Z,93.78
2022-10-24T09:17:44.104Z,92.00
2022-10-24T09:20:33.263Z,91.96
2022-10-24T09:23:05.554Z,91.81
2022-10-24T09:25:36.203Z,91.57
2022-10-24T09:28:05.721Z,91.04
2022-10-24T09:30:34.266Z,88.21
2022-10-24T09:33:13.138Z,89.34
2022-10-24T09:35:42.589Z,88.57
2022-10-24T09:38:37.189Z,87.50
2022-10-24T09:41:04.177Z,84.98
2022-10-24T09:43:43.634Z,86.42
2022-10-24T09:46:20.316Z,87.67
2022-10-24T09:49:12.341Z,84.66
2022-10-24T09:52:16.471Z,87.22
2022-10-24T09:54:44.672Z,83.93
2022-10-24T09:57:11.646Z,82.21
2022-10-24T09:59:44.065Z,84.82
2022-10-24T10:02:12.685Z,83.21
2022-10-24T10:04:41.600Z,84.41
2022-10-24T10:07:14.992Z,84.82
2022-10-24T10:09:57.796Z,83.87
2022-10-24T10:12:24.662Z,84.33
2022-10-24T10:14:52.172Z,83.04
2022-10-24T10:17:25.287Z,79.87
2022-10-24T10:19:54.476Z,76.33
2022-10-24T10:22:31.728Z,76.73
2022-10-24T10:25:00.290Z,75.10
2022-10-24T10:27:41.737Z,77.39
2022-10-24T10:30:11.626Z,80.40
2022-10-24T10:33:06.565Z,78.40
2022-10-24T10:35:46.984Z,77.87
2022-10-24T10:38:29.316Z,75.66
2022-10-24T10:41:11.067Z,77.06
2022-10-24T10:44:00.750Z,78.69
2022-10-24T10:46:46.263Z,79.77
2022-10-24T10:49:25.334Z,79.62
2022-10-24T10:52:06.170Z,77.13
2022-10-24T10:55:02.993Z,75.25
2022-10-24T10:57:33.611Z,72.14
2022-10-24T11:00:12.664Z,75.63
2022-10-24T11:03:07.668Z,76.05
2022-10-24T11:06:10.722Z,75.63
2022-10-24T11:09:11.348Z,77.49
2022-10-24T11:11:51.111Z,75.66
2022-10-24T11:14:29.578Z,78.39
2022-10-24T11:17:02.875Z,76.19
2022-10-24T11:19:32.503Z,76.12
2022-10-24T11:22:04.907Z,74.97
2022-10-24T11:24:38.989Z,75.00
2022-10-24T11:27:16.254Z,73.84
2022-10-24T11:29:53.984Z,71.24
2022-10-24T11:32:25.676Z,74.52
2022-10-24T11:35:18.899Z,71.44
2022-10-24T11:37:50.610Z,72.08
2022-10-24T11:40:21.838Z,73.44
2022-10-24T11:42:58.171Z,73.86
2022-10-24T11:45:32.651Z,75.67
2022-10-24T11:48:23.984Z,76.55
2022-10-24T11:50:57.280Z,73.89
2022-10-24T11:53:33.333Z,75.63
2022-10-24T11:56:15.247Z,73.86
2022-10-24T11:58:57.383Z,73.16
2022-10-24T12:01:55.443Z,74.02
2022-10-24T12:05:07.908Z,74.25
2022-10-24T12:07:41.106Z,73.92
2022-10-24T12:10:42.133Z,72.48
2022-10-24T12:13:47.685Z,74.28
2022-10-24T12:16:32.887Z,75.55
2022-10-24T12:19:04.738Z,73.39
2022-10-24T12:21:43.941Z,74.18
2022-10-24T12:24:36.284Z,75.13
2022-10-24T12:27:06.868Z,73.99
2022-10-24T12:29:36.634Z,74.49
2022-10-24T12:32:24.222Z,73.99
2022-10-24T12:35:29.029Z,73.08
2022-10-24T12:37:49.822Z,75.42
2022-10-24T12:40:47.709Z,75.22
2022-10-24T12:43:29.961Z,75.02
2022-10-24T12:46:01.442Z,72.08
2022-10-24T12:48:30.695Z,72.58
2022-10-24T12:51:02.454Z,73.55
2022-10-24T12:53:31.669Z,74.27
2022-10-24T12:55:58.612Z,71.47
2022-10-24T12:58:31.698Z,73.77
2022-10-24T13:01:07.922Z,73.33
2022-10-24T13:03:50.308Z,72.51
2022-10-24T13:06:35.841Z,73.54
2022-10-24T13:09:32.134Z,72.61
2022-10-24T13:12:05.309Z,72.75
2022-10-24T13:14:55.715Z,72.59
2022-10-24T13:17:59.105Z,73.06
2022-10-24T13:20:29.115Z,72.39
2022-10-24T13:23:06.264Z,71.70
2022-10-24T13:25:39.023Z,71.89
2022-10-24T13:28:24.251Z,72.33
2022-10-24T13:31:00.216Z,71.24
2022-10-24T13:33:33.210Z,70.78
2022-10-24T13:36:09.038Z,71.84
2022-10-24T13:38:49.207Z,69.50
2022-10-24T13:41:35.999Z,70.60
2022-10-24T13:44:14.356Z,70.67
2022-10-24T13:47:14.451Z,70.49
2022-10-24T13:49:59.105Z,72.73
2022-10-24T13:52:31.004Z,72.12
2022-10-24T13:55:02.414Z,72.10
2022-10-24T13:57:35.826Z,72.74
2022-10-24T14:00:28.509Z,70.93
2022-10-24T14:02:56.434Z,71.53
2022-10-24T14:05:27.688Z,71.09
2022-10-24T14:07:54.799Z,72.26
2022-10-24T14:10:21.982Z,73.01
2022-10-24T14:12:52.103Z,70.81
2022-10-24T14:15:22.484Z,71.76
2022-10-24T14:18:14.249Z,72.64
2022-10-24T14:20:42.294Z,71.44
2022-10-24T14:23:23.695Z,70.09
2022-10-24T14:26:00.093Z,70.53
2022-10-24T14:28:37.099Z,70.47
2022-10-24T14:31:07.010Z,73.49
2022-10-24T14:33:50.291Z,74.22
2022-10-24T14:36:21.054Z,74.35
2022-10-24T14:38:50.398Z,74.41
2022-10-24T14:41:18.795Z,73.76
2022-10-24T14:43:46.308Z,74.24
2022-10-24T14:46:13.253Z,73.00
2022-10-24T14:48:46.873Z,74.71
2022-10-24T14:51:39.113Z,74.23
2022-10-24T14:54:18.838Z,74.87
2022-10-24T14:56:46.350Z,74.54
2022-10-24T14:59:43.662Z,74.73
2022-10-24T15:02:25.681Z,74.75
2022-10-24T15:05:12.651Z,75.90
2022-10-24T15:07:52.385Z,78.75
2022-10-24T15:10:42.790Z,79.83
2022-10-24T15:13:16.699Z,80.64
2022-10-24T15:15:43.684Z,81.91
2022-10-24T15:18:27.648Z,78.23
2022-10-24T15:21:01.318Z,78.29
2022-10-24T15:23:31.767Z,77.25
2022-10-24T15:26:11.340Z,76.25
2022-10-24T15:28:48.161Z,78.75
2022-10-24T15:31:18.330Z,78.15
2022-10-24T15:33:46.086Z,78.59
2022-10-24T15:36:34.847Z,77.81
2022-10-24T15:39:11.374Z,79.35
2022-10-24T15:41:39.282Z,78.75
2022-10-24T15:44:15.002Z,78.75
2022-10-24T15:46:42.013Z,79.12
2022-10-24T15:49:09.046Z,78.63
2022-10-24T15:51:38.110Z,79.05
2022-10-24T15:54:05.629Z,79.34
2022-10-24T15:56:32.911Z,80.28
2022-10-24T15:58:59.967Z,80.74
2022-10-24T16:01:31.269Z,79.20
2022-10-24T16:03:59.194Z,79.71
2022-10-24T16:06:27.522Z,80.58
2022-10-24T16:08:55.879Z,81.18
2022-10-24T16:11:23.233Z,81.69
2022-10-24T16:13:51.134Z,81.48
2022-10-24T16:16:18.188Z,82.16
2022-10-24T16:18:45.273Z,82.57
2022-10-24T16:21:20.985Z,81.88
2022-10-24T16:23:48.670Z,83.53
2022-10-24T16:26:16.322Z,84.49
2022-10-24T16:28:43.394Z,85.59
2022-10-24T16:31:15.285Z,86.76
2022-10-24T16:33:42.405Z,87.46
2022-10-24T16:36:09.441Z,88.67
2022-10-24T16:38:36.506Z,88.63
2022-10-24T16:41:03.759Z,87.80
2022-10-24T16:43:30.783Z,87.98
2022-10-24T16:46:00.447Z,87.99
2022-10-24T16:48:28.411Z,87.54
2022-10-24T16:50:56.608Z,88.08
2022-10-24T16:53:24.084Z,88.09
2022-10-24T16:55:54.634Z,87.96
2022-10-24T16:58:22.701Z,88.15
2022-10-24T17:00:49.930Z,88.41
2022-10-24T17:03:17.195Z,87.89
2022-10-24T17:08:13.705Z,87.09
2022-10-24T17:10:40.711Z,87.38
2022-10-24T17:13:07.756Z,87.52
2022-10-24T17:15:34.839Z,86.33
2022-10-24T17:18:01.869Z,87.82
2022-10-24T17:20:28.983Z,86.43
2022-10-24T17:22:56.317Z,86.22
2022-10-24T17:25:25.549Z,85.87
2022-10-24T17:27:53.748Z,87.43
2022-10-24T17:30:27.418Z,86.44
2022-10-24T17:32:54.522Z,86.67
2022-10-24T17:35:23.736Z,86.93
2022-10-24T17:38:28.490Z,87.26
2022-10-24T17:41:00.303Z,86.33
2022-10-24T17:43:28.241Z,86.37
2022-10-24T17:45:57.089Z,88.61
2022-10-24T17:48:25.117Z,90.29
2022-10-24T17:50:56.336Z,93.61
2022-10-24T17:53:23.423Z,95.54
2022-10-24T17:55:50.453Z,95.76
2022-10-24T17:58:17.470Z,94.54
2022-10-24T18:00:44.854Z,91.94
2022-10-24T18:03:12.653Z,93.72
2022-10-24T18:05:39.997Z,91.22
2022-10-24T18:08:08.706Z,91.91
2022-10-24T18:10:40.358Z,92.37
2022-10-24T18:13:08.094Z,93.16
2022-10-24T18:15:36.316Z,92.16
2022-10-24T18:18:03.868Z,91.45
2022-10-24T18:20:32.051Z,92.20
2022-10-24T18:22:59.772Z,91.03
2022-10-24T18:25:27.578Z,91.15
2022-10-24T18:27:56.290Z,91.74
2022-10-24T18:30:23.429Z,92.60
2022-10-24T18:32:50.623Z,92.48
2022-10-24T18:35:17.909Z,93.12
2022-10-24T18:37:45.068Z,92.49
2022-10-24T18:40:12.778Z,91.91
2022-10-24T18:42:39.736Z,93.10
2022-10-24T18:45:11.078Z,93.11
2022-10-24T18:47:38.561Z,93.79
2022-10-24T18:50:06.125Z,94.03
2022-10-24T18:52:54.289Z,94.57
2022-10-24T18:55:23.991Z,93.76
2022-10-24T18:57:51.576Z,92.74
2022-10-24T19:00:21.531Z,92.92
2022-10-24T19:02:52.467Z,95.49
2022-10-24T19:05:21.872Z,93.61
2022-10-24T19:07:49.962Z,94.99
2022-10-24T19:10:27.331Z,94.97
2022-10-24T19:12:54.559Z,94.71
2022-10-24T19:15:22.632Z,96.32
2022-10-24T19:17:51.129Z,95.62
2022-10-24T19:20:21.772Z,96.23
2022-10-24T19:22:49.677Z,95.52
2022-10-24T19:25:17.468Z,97.84
2022-10-24T19:27:44.866Z,94.47
2022-10-24T19:30:12.853Z,94.59
2022-10-24T19:32:39.971Z,94.10
2022-10-24T19:35:07.273Z,95.46
2022-10-24T19:37:34.327Z,94.60
2022-10-24T19:40:01.322Z,95.49
2022-10-24T19:42:28.475Z,94.33
2022-10-24T19:44:56.473Z,95.66
2022-10-24T19:47:23.524Z,96.08
2022-10-24T19:49:50.577Z,96.80
2022-10-24T19:52:17.806Z,100.00
2022-10-24T19:54:45.049Z,100.00
2022-10-24T19:57:12.365Z,100.00
2022-10-24T19:59:39.413Z,100.00
2022-10-24T20:02:06.518Z,100.00
2022-10-24T20:04:33.553Z,100.00
2022-10-24T20:07:00.582Z,100.00
2022-10-24T20:09:27.563Z,100.00
2022-10-24T20:11:54.559Z,100.00
2022-10-24T20:14:24.400Z,100.00
2022-10-24T20:16:51.468Z,100.00
2022-10-24T20:19:18.731Z,100.00
2022-10-24T20:21:45.730Z,100.00
2022-10-24T20:24:13.151Z,100.00
2022-10-24T20:26:40.190Z,100.00
2022-10-24T20:29:07.326Z,100.00
2022-10-24T20:31:38.246Z,100.00
2022-10-24T20:34:13.801Z,100.00
2022-10-24T20:36:44.408Z,100.00
2022-10-24T20:39:13.447Z,100.00
2022-10-24T20:41:40.569Z,100.00
2022-10-24T20:44:08.153Z,100.00
2022-10-24T20:46:36.400Z,100.00
2022-10-24T20:49:04.157Z,100.00
2022-10-24T20:51:31.475Z,100.00
2022-10-24T20:53:58.631Z,100.00
2022-10-24T20:56:26.598Z,100.00
2022-10-24T20:58:55.320Z,100.00
2022-10-24T21:01:24.793Z,100.00
2022-10-24T21:03:52.769Z,100.00
2022-10-24T21:06:28.529Z,100.00
2022-10-24T21:08:58.396Z,100.00
2022-10-24T21:11:28.252Z,100.00
2022-10-24T21:14:01.602Z,100.00
2022-10-24T21:16:29.461Z,100.00
2022-10-24T21:18:57.585Z,100.00
2022-10-24T21:21:25.534Z,100.00
2022-10-24T21:23:54.794Z,100.00
2022-10-24T21:26:22.672Z,100.00
2022-10-24T21:28:54.007Z,100.00
2022-10-24T21:31:26.546Z,100.00
2022-10-24T21:33:53.683Z,100.00
2022-10-24T21:36:22.878Z,100.00
2022-10-24T21:38:56.237Z,100.00
2022-10-24T21:41:24.422Z,100.00
2022-10-24T21:43:52.059Z,100.00
2022-10-24T21:46:31.561Z,100.00
2022-10-24T21:48:59.111Z,100.00
2022-10-24T21:51:28.754Z,100.00
2022-10-24T21:54:01.526Z,100.00
2022-10-24T21:56:31.198Z,100.00
2022-10-24T21:59:01.061Z,100.00
2022-10-24T22:01:34.163Z,100.00
2022-10-24T22:04:01.965Z,100.00
2022-10-24T22:06:30.978Z,100.00
2022-10-24T22:08:58.362Z,100.00
2022-10-24T22:11:30.728Z,100.00
2022-10-24T22:13:58.384Z,100.00
2022-10-24T22:16:28.722Z,100.00
2022-10-24T22:18:58.751Z,100.00
2022-10-24T22:21:30.594Z,100.00
2022-10-24T22:24:04.933Z,100.00
2022-10-24T22:26:32.074Z,100.00
2022-10-24T22:28:59.250Z,100.00
2022-10-24T22:31:27.809Z,100.00
2022-10-24T22:33:55.976Z,100.00
2022-10-24T22:36:47.172Z,100.00
2022-10-24T22:39:19.699Z,100.00
2022-10-24T22:41:47.612Z,100.00
2022-10-24T22:44:17.112Z,100.00
2022-10-24T22:47:10.355Z,100.00
2022-10-24T22:49:49.576Z,100.00
2022-10-24T22:52:16.943Z,100.00
2022-10-24T22:54:44.391Z,100.00
2022-10-24T22:57:11.681Z,100.00
2022-10-24T22:59:38.896Z,100.00
2022-10-24T23:02:11.892Z,100.00
2022-10-24T23:04:45.341Z,100.00
2022-10-24T23:07:27.493Z,100.00
2022-10-24T23:09:54.974Z,100.00
2022-10-24T23:12:22.911Z,100.00
2022-10-24T23:14:51.439Z,100.00
2022-10-24T23:17:30.030Z,100.00
2022-10-24T23:19:57.654Z,100.00
2022-10-24T23:22:27.149Z,100.00
2022-10-24T23:24:57.343Z,100.00
2022-10-24T23:27:41.268Z,100.00
2022-10-24T23:30:20.968Z,100.00
2022-10-24T23:32:50.289Z,100.00
2022-10-24T23:35:19.516Z,100.00
2022-10-24T23:37:52.288Z,100.00
2022-10-24T23:40:34.246Z,100.00
2022-10-24T23:43:03.902Z,100.00
2022-10-24T23:45:49.420Z,100.00
2022-10-24T23:48:16.378Z,100.00
2022-10-24T23:50:43.338Z,100.00
2022-10-24T23:53:48.792Z,100.00
2022-10-24T23:56:21.009Z,100.00
2022-10-24T23:58:48.570Z,100.00
